sensor_id;sensor_type;location;lat;lon;timestamp;P1;durP1;ratioP1;P2;durP2;ratioP2
69542;SDS011;56762;49.494;11.768;2022-10-16T00:01:16;2.23;;;0.80;;
69542;SDS011;56762;49.494;11.768;2022-10-16T00:03:52;2.85;;;1.27;;
69542;SDS011;56762;49.494;11.768;2022-10-16T00:06:24;3.38;;;1.20;;
69542;SDS011;56762;49.494;11.768;2022-10-16T00:08:53;3.22;;;1.20;;
69542;SDS011;56762;49.494;11.768;2022-10-16T00:11:22;2.42;;;1.10;;
69542;SDS011;56762;49.494;11.768;2022-10-16T00:13:54;2.70;;;1.17;;
69542;SDS011;56762;49.494;11.768;2022-10-16T00:16:26;2.63;;;1.17;;
69542;SDS011;56762;49.494;11.768;2022-10-16T00:18:55;2.25;;;1.02;;
69542;SDS011;56762;49.494;11.768;2022-10-16T00:21:24;3.13;;;1.15;;
69542;SDS011;56762;49.494;11.768;2022-10-16T00:23:54;3.85;;;1.20;;
69542;SDS011;56762;49.494;11.768;2022-10-16T00:26:25;2.53;;;1.00;;
69542;SDS011;56762;49.494;11.768;2022-10-16T00:28:54;3.25;;;1.10;;
69542;SDS011;56762;49.494;11.768;2022-10-16T00:31:23;3.05;;;1.13;;
69542;SDS011;56762;49.494;11.768;2022-10-16T00:33:55;2.40;;;0.82;;
69542;SDS011;56762;49.494;11.768;2022-10-16T00:36:24;2.47;;;1.10;;
69542;SDS011;56762;49.494;11.768;2022-10-16T00:38:53;3.70;;;1.40;;
69542;SDS011;56762;49.494;11.768;2022-10-16T00:41:24;2.85;;;1.20;;
69542;SDS011;56762;49.494;11.768;2022-10-16T00:43:55;2.17;;;0.90;;
69542;SDS011;56762;49.494;11.768;2022-10-16T00:46:25;1.65;;;0.75;;
69542;SDS011;56762;49.494;11.768;2022-10-16T00:48:59;2.30;;;1.00;;
69542;SDS011;56762;49.494;11.768;2022-10-16T00:51:30;3.77;;;1.10;;
69542;SDS011;56762;49.494;11.768;2022-10-16T00:54:02;3.88;;;1.08;;
69542;SDS011;56762;49.494;11.768;2022-10-16T00:56:33;3.85;;;0.98;;
69542;SDS011;56762;49.494;11.768;2022-10-16T00:59:02;1.92;;;0.80;;
69542;SDS011;56762;49.494;11.768;2022-10-16T01:01:34;2.50;;;1.10;;
69542;SDS011;56762;49.494;11.768;2022-10-16T01:04:04;3.07;;;0.90;;
69542;SDS011;56762;49.494;11.768;2022-10-16T01:06:33;2.90;;;0.80;;
69542;SDS011;56762;49.494;11.768;2022-10-16T01:09:11;2.28;;;0.82;;
69542;SDS011;56762;49.494;11.768;2022-10-16T01:11:47;2.80;;;0.93;;
69542;SDS011;56762;49.494;11.768;2022-10-16T01:14:24;1.42;;;0.68;;
69542;SDS011;56762;49.494;11.768;2022-10-16T01:17:02;2.57;;;1.00;;
69542;SDS011;56762;49.494;11.768;2022-10-16T01:19:38;2.10;;;0.93;;
69542;SDS011;56762;49.494;11.768;2022-10-16T01:22:17;3.72;;;0.98;;
69542;SDS011;56762;49.494;11.768;2022-10-16T01:24:51;1.88;;;0.80;;
69542;SDS011;56762;49.494;11.768;2022-10-16T01:27:24;2.70;;;1.00;;
69542;SDS011;56762;49.494;11.768;2022-10-16T01:29:56;2.40;;;0.90;;
69542;SDS011;56762;49.494;11.768;2022-10-16T01:35:36;7.93;;;1.20;;
69542;SDS011;56762;49.494;11.768;2022-10-16T01:38:08;2.65;;;1.10;;
69542;SDS011;56762;49.494;11.768;2022-10-16T01:40:41;2.58;;;1.00;;
69542;SDS011;56762;49.494;11.768;2022-10-16T01:43:15;2.00;;;0.93;;
69542;SDS011;56762;49.494;11.768;2022-10-16T01:45:46;3.35;;;0.82;;
69542;SDS011;56762;49.494;11.768;2022-10-16T01:48:16;2.60;;;1.23;;
69542;SDS011;56762;49.494;11.768;2022-10-16T01:50:49;4.15;;;1.17;;
69542;SDS011;56762;49.494;11.768;2022-10-16T01:53:21;3.47;;;0.90;;
69542;SDS011;56762;49.494;11.768;2022-10-16T01:55:51;3.63;;;1.03;;
69542;SDS011;56762;49.494;11.768;2022-10-16T01:58:23;2.65;;;1.10;;
69542;SDS011;56762;49.494;11.768;2022-10-16T02:00:52;2.17;;;0.90;;
69542;SDS011;56762;49.494;11.768;2022-10-16T02:03:24;1.98;;;0.82;;
69542;SDS011;56762;49.494;11.768;2022-10-16T02:05:53;1.70;;;0.90;;
69542;SDS011;56762;49.494;11.768;2022-10-16T02:08:23;2.33;;;0.90;;
69542;SDS011;56762;49.494;11.768;2022-10-16T02:10:54;3.40;;;0.90;;
69542;SDS011;56762;49.494;11.768;2022-10-16T02:13:27;2.65;;;1.15;;
69542;SDS011;56762;49.494;11.768;2022-10-16T02:15:58;2.15;;;1.00;;
69542;SDS011;56762;49.494;11.768;2022-10-16T02:18:27;2.55;;;1.30;;
69542;SDS011;56762;49.494;11.768;2022-10-16T02:20:57;1.93;;;0.90;;
69542;SDS011;56762;49.494;11.768;2022-10-16T02:23:30;1.92;;;0.93;;
69542;SDS011;56762;49.494;11.768;2022-10-16T02:26:06;2.67;;;1.10;;
69542;SDS011;56762;49.494;11.768;2022-10-16T02:28:38;2.70;;;1.40;;
69542;SDS011;56762;49.494;11.768;2022-10-16T02:31:11;4.10;;;1.30;;
69542;SDS011;56762;49.494;11.768;2022-10-16T02:33:43;2.37;;;1.03;;
69542;SDS011;56762;49.494;11.768;2022-10-16T02:36:13;2.25;;;1.25;;
69542;SDS011;56762;49.494;11.768;2022-10-16T02:38:41;2.38;;;1.08;;
69542;SDS011;56762;49.494;11.768;2022-10-16T02:41:12;2.05;;;0.90;;
69542;SDS011;56762;49.494;11.768;2022-10-16T02:43:41;3.28;;;0.90;;
69542;SDS011;56762;49.494;11.768;2022-10-16T02:46:09;1.83;;;0.80;;
69542;SDS011;56762;49.494;11.768;2022-10-16T02:48:37;1.50;;;0.73;;
69542;SDS011;56762;49.494;11.768;2022-10-16T02:51:05;3.22;;;0.80;;
69542;SDS011;56762;49.494;11.768;2022-10-16T02:53:33;1.50;;;0.80;;
69542;SDS011;56762;49.494;11.768;2022-10-16T02:56:02;2.80;;;0.98;;
69542;SDS011;56762;49.494;11.768;2022-10-16T02:58:33;1.87;;;0.90;;
69542;SDS011;56762;49.494;11.768;2022-10-16T03:01:03;2.38;;;1.15;;
69542;SDS011;56762;49.494;11.768;2022-10-16T03:03:31;2.33;;;1.00;;
69542;SDS011;56762;49.494;11.768;2022-10-16T03:05:59;3.15;;;1.20;;
69542;SDS011;56762;49.494;11.768;2022-10-16T03:08:27;2.33;;;1.40;;
69542;SDS011;56762;49.494;11.768;2022-10-16T03:10:56;3.03;;;1.30;;
69542;SDS011;56762;49.494;11.768;2022-10-16T03:13:24;2.42;;;1.20;;
69542;SDS011;56762;49.494;11.768;2022-10-16T03:15:53;4.93;;;1.70;;
69542;SDS011;56762;49.494;11.768;2022-10-16T03:18:23;3.83;;;1.30;;
69542;SDS011;56762;49.494;11.768;2022-10-16T03:20:51;2.47;;;1.20;;
69542;SDS011;56762;49.494;11.768;2022-10-16T03:23:19;2.50;;;1.20;;
69542;SDS011;56762;49.494;11.768;2022-10-16T03:25:47;2.83;;;1.50;;
69542;SDS011;56762;49.494;11.768;2022-10-16T03:28:17;2.25;;;1.20;;
69542;SDS011;56762;49.494;11.768;2022-10-16T03:30:45;2.50;;;1.27;;
69542;SDS011;56762;49.494;11.768;2022-10-16T03:33:13;2.22;;;1.00;;
69542;SDS011;56762;49.494;11.768;2022-10-16T03:35:42;2.07;;;0.80;;
69542;SDS011;56762;49.494;11.768;2022-10-16T03:38:10;2.47;;;1.00;;
69542;SDS011;56762;49.494;11.768;2022-10-16T03:40:40;2.10;;;1.00;;
69542;SDS011;56762;49.494;11.768;2022-10-16T03:43:08;2.70;;;1.27;;
69542;SDS011;56762;49.494;11.768;2022-10-16T03:45:36;2.33;;;1.20;;
69542;SDS011;56762;49.494;11.768;2022-10-16T03:48:04;3.90;;;1.20;;
69542;SDS011;56762;49.494;11.768;2022-10-16T03:50:32;3.20;;;1.88;;
69542;SDS011;56762;49.494;11.768;2022-10-16T03:53:02;2.80;;;1.17;;
69542;SDS011;56762;49.494;11.768;2022-10-16T03:55:30;7.90;;;1.60;;
69542;SDS011;56762;49.494;11.768;2022-10-16T03:57:58;2.65;;;1.20;;
69542;SDS011;56762;49.494;11.768;2022-10-16T04:00:26;2.17;;;1.00;;
69542;SDS011;56762;49.494;11.768;2022-10-16T04:02:54;3.97;;;1.30;;
69542;SDS011;56762;49.494;11.768;2022-10-16T04:05:21;2.25;;;1.20;;
69542;SDS011;56762;49.494;11.768;2022-10-16T04:07:50;2.95;;;0.82;;
69542;SDS011;56762;49.494;11.768;2022-10-16T04:10:19;2.78;;;1.10;;
69542;SDS011;56762;49.494;11.768;2022-10-16T04:12:47;2.20;;;1.00;;
69542;SDS011;56762;49.494;11.768;2022-10-16T04:15:15;2.90;;;0.98;;
69542;SDS011;56762;49.494;11.768;2022-10-16T04:17:43;2.97;;;1.00;;
69542;SDS011;56762;49.494;11.768;2022-10-16T04:20:11;2.25;;;0.93;;
69542;SDS011;56762;49.494;11.768;2022-10-16T04:22:39;2.40;;;1.10;;
69542;SDS011;56762;49.494;11.768;2022-10-16T04:25:07;2.87;;;1.20;;
69542;SDS011;56762;49.494;11.768;2022-10-16T04:27:38;3.55;;;1.10;;
69542;SDS011;56762;49.494;11.768;2022-10-16T04:30:12;2.85;;;1.10;;
69542;SDS011;56762;49.494;11.768;2022-10-16T04:32:40;3.00;;;1.27;;
69542;SDS011;56762;49.494;11.768;2022-10-16T04:35:08;2.72;;;1.20;;
69542;SDS011;56762;49.494;11.768;2022-10-16T04:37:36;2.63;;;1.30;;
69542;SDS011;56762;49.494;11.768;2022-10-16T04:40:04;2.53;;;1.00;;
69542;SDS011;56762;49.494;11.768;2022-10-16T04:42:32;3.63;;;0.93;;
69542;SDS011;56762;49.494;11.768;2022-10-16T04:45:01;2.20;;;1.02;;
69542;SDS011;56762;49.494;11.768;2022-10-16T04:47:39;2.30;;;1.10;;
69542;SDS011;56762;49.494;11.768;2022-10-16T04:50:07;2.13;;;0.90;;
69542;SDS011;56762;49.494;11.768;2022-10-16T04:52:37;3.72;;;1.27;;
69542;SDS011;56762;49.494;11.768;2022-10-16T04:55:05;2.45;;;1.15;;
69542;SDS011;56762;49.494;11.768;2022-10-16T04:57:34;4.15;;;1.15;;
69542;SDS011;56762;49.494;11.768;2022-10-16T05:00:03;2.00;;;1.02;;
69542;SDS011;56762;49.494;11.768;2022-10-16T05:02:32;2.30;;;1.03;;
69542;SDS011;56762;49.494;11.768;2022-10-16T05:05:00;3.35;;;1.30;;
69542;SDS011;56762;49.494;11.768;2022-10-16T05:07:27;2.45;;;1.13;;
69542;SDS011;56762;49.494;11.768;2022-10-16T05:09:55;2.22;;;1.10;;
69542;SDS011;56762;49.494;11.768;2022-10-16T05:12:23;2.83;;;1.13;;
69542;SDS011;56762;49.494;11.768;2022-10-16T05:14:51;2.10;;;1.07;;
69542;SDS011;56762;49.494;11.768;2022-10-16T05:17:20;2.63;;;1.60;;
69542;SDS011;56762;49.494;11.768;2022-10-16T05:19:49;2.88;;;1.88;;
69542;SDS011;56762;49.494;11.768;2022-10-16T05:22:16;2.78;;;1.50;;
69542;SDS011;56762;49.494;11.768;2022-10-16T05:24:45;2.65;;;1.40;;
69542;SDS011;56762;49.494;11.768;2022-10-16T05:27:13;3.30;;;1.27;;
69542;SDS011;56762;49.494;11.768;2022-10-16T05:29:45;1.88;;;0.93;;
69542;SDS011;56762;49.494;11.768;2022-10-16T05:32:13;2.42;;;1.02;;
69542;SDS011;56762;49.494;11.768;2022-10-16T05:34:44;2.67;;;1.02;;
69542;SDS011;56762;49.494;11.768;2022-10-16T05:37:12;2.25;;;1.10;;
69542;SDS011;56762;49.494;11.768;2022-10-16T05:39:41;2.43;;;1.20;;
69542;SDS011;56762;49.494;11.768;2022-10-16T05:42:08;2.15;;;1.13;;
69542;SDS011;56762;49.494;11.768;2022-10-16T05:44:36;2.58;;;1.40;;
69542;SDS011;56762;49.494;11.768;2022-10-16T05:47:04;2.53;;;1.40;;
69542;SDS011;56762;49.494;11.768;2022-10-16T05:49:32;2.28;;;1.50;;
69542;SDS011;56762;49.494;11.768;2022-10-16T05:52:07;2.77;;;1.50;;
69542;SDS011;56762;49.494;11.768;2022-10-16T05:54:35;2.83;;;1.70;;
69542;SDS011;56762;49.494;11.768;2022-10-16T05:57:03;3.15;;;1.70;;
69542;SDS011;56762;49.494;11.768;2022-10-16T05:59:32;4.07;;;2.20;;
69542;SDS011;56762;49.494;11.768;2022-10-16T06:02:00;4.28;;;2.08;;
69542;SDS011;56762;49.494;11.768;2022-10-16T06:04:27;3.93;;;1.90;;
69542;SDS011;56762;49.494;11.768;2022-10-16T06:06:57;3.08;;;1.75;;
69542;SDS011;56762;49.494;11.768;2022-10-16T06:09:28;5.28;;;1.70;;
69542;SDS011;56762;49.494;11.768;2022-10-16T06:11:55;3.60;;;1.42;;
69542;SDS011;56762;49.494;11.768;2022-10-16T06:14:23;3.15;;;1.38;;
69542;SDS011;56762;49.494;11.768;2022-10-16T06:16:51;3.87;;;1.77;;
69542;SDS011;56762;49.494;11.768;2022-10-16T06:19:19;4.63;;;2.13;;
69542;SDS011;56762;49.494;11.768;2022-10-16T06:21:47;4.97;;;2.40;;
69542;SDS011;56762;49.494;11.768;2022-10-16T06:24:15;4.70;;;2.30;;
69542;SDS011;56762;49.494;11.768;2022-10-16T06:26:44;8.55;;;2.75;;
69542;SDS011;56762;49.494;11.768;2022-10-16T06:29:12;8.03;;;3.80;;
69542;SDS011;56762;49.494;11.768;2022-10-16T06:31:40;9.88;;;4.32;;
69542;SDS011;56762;49.494;11.768;2022-10-16T06:34:09;8.95;;;4.07;;
69542;SDS011;56762;49.494;11.768;2022-10-16T06:36:38;5.85;;;4.50;;
69542;SDS011;56762;49.494;11.768;2022-10-16T06:39:06;5.78;;;4.30;;
69542;SDS011;56762;49.494;11.768;2022-10-16T06:41:34;4.80;;;2.67;;
69542;SDS011;56762;49.494;11.768;2022-10-16T06:44:06;6.78;;;3.15;;
69542;SDS011;56762;49.494;11.768;2022-10-16T06:46:34;4.05;;;2.30;;
69542;SDS011;56762;49.494;11.768;2022-10-16T06:49:04;3.78;;;2.20;;
69542;SDS011;56762;49.494;11.768;2022-10-16T06:51:32;3.67;;;1.95;;
69542;SDS011;56762;49.494;11.768;2022-10-16T06:54:07;4.67;;;1.70;;
69542;SDS011;56762;49.494;11.768;2022-10-16T06:56:36;4.07;;;1.80;;
69542;SDS011;56762;49.494;11.768;2022-10-16T06:59:05;4.07;;;2.10;;
69542;SDS011;56762;49.494;11.768;2022-10-16T07:01:33;3.58;;;2.17;;
69542;SDS011;56762;49.494;11.768;2022-10-16T07:04:01;4.03;;;2.70;;
69542;SDS011;56762;49.494;11.768;2022-10-16T07:06:30;3.63;;;2.20;;
69542;SDS011;56762;49.494;11.768;2022-10-16T07:09:02;4.18;;;2.20;;
69542;SDS011;56762;49.494;11.768;2022-10-16T07:11:32;3.42;;;2.17;;
69542;SDS011;56762;49.494;11.768;2022-10-16T07:14:00;5.15;;;2.72;;
69542;SDS011;56762;49.494;11.768;2022-10-16T07:16:30;5.32;;;2.92;;
69542;SDS011;56762;49.494;11.768;2022-10-16T07:19:00;5.37;;;2.50;;
69542;SDS011;56762;49.494;11.768;2022-10-16T07:21:30;5.18;;;1.98;;
69542;SDS011;56762;49.494;11.768;2022-10-16T07:24:03;7.30;;;2.60;;
69542;SDS011;56762;49.494;11.768;2022-10-16T07:26:33;5.30;;;1.80;;
69542;SDS011;56762;49.494;11.768;2022-10-16T07:29:03;5.63;;;1.70;;
69542;SDS011;56762;49.494;11.768;2022-10-16T07:31:32;6.23;;;2.50;;
69542;SDS011;56762;49.494;11.768;2022-10-16T07:34:00;6.28;;;2.17;;
69542;SDS011;56762;49.494;11.768;2022-10-16T07:36:28;4.70;;;2.10;;
69542;SDS011;56762;49.494;11.768;2022-10-16T07:38:56;3.80;;;1.77;;
69542;SDS011;56762;49.494;11.768;2022-10-16T07:41:26;4.97;;;1.73;;
69542;SDS011;56762;49.494;11.768;2022-10-16T07:43:54;4.20;;;1.97;;
69542;SDS011;56762;49.494;11.768;2022-10-16T07:46:26;5.85;;;1.90;;
69542;SDS011;56762;49.494;11.768;2022-10-16T07:48:56;4.00;;;1.77;;
69542;SDS011;56762;49.494;11.768;2022-10-16T07:51:24;4.65;;;1.80;;
69542;SDS011;56762;49.494;11.768;2022-10-16T07:53:53;3.60;;;1.60;;
69542;SDS011;56762;49.494;11.768;2022-10-16T07:56:22;3.83;;;1.90;;
69542;SDS011;56762;49.494;11.768;2022-10-16T07:58:51;3.00;;;1.58;;
69542;SDS011;56762;49.494;11.768;2022-10-16T08:01:19;3.55;;;1.90;;
69542;SDS011;56762;49.494;11.768;2022-10-16T08:03:48;2.33;;;1.48;;
69542;SDS011;56762;49.494;11.768;2022-10-16T08:06:19;3.72;;;2.08;;
69542;SDS011;56762;49.494;11.768;2022-10-16T08:08:53;2.73;;;1.73;;
69542;SDS011;56762;49.494;11.768;2022-10-16T08:11:21;4.00;;;1.52;;
69542;SDS011;56762;49.494;11.768;2022-10-16T08:13:49;2.92;;;1.70;;
69542;SDS011;56762;49.494;11.768;2022-10-16T08:16:17;2.67;;;1.70;;
69542;SDS011;56762;49.494;11.768;2022-10-16T08:18:46;2.67;;;1.42;;
69542;SDS011;56762;49.494;11.768;2022-10-16T08:21:15;2.40;;;1.30;;
69542;SDS011;56762;49.494;11.768;2022-10-16T08:23:48;6.97;;;3.95;;
69542;SDS011;56762;49.494;11.768;2022-10-16T08:26:23;5.78;;;3.08;;
69542;SDS011;56762;49.494;11.768;2022-10-16T08:28:52;6.00;;;4.32;;
69542;SDS011;56762;49.494;11.768;2022-10-16T08:31:20;3.42;;;2.25;;
69542;SDS011;56762;49.494;11.768;2022-10-16T08:33:48;3.70;;;2.70;;
69542;SDS011;56762;49.494;11.768;2022-10-16T08:36:17;4.25;;;2.40;;
69542;SDS011;56762;49.494;11.768;2022-10-16T08:38:48;5.25;;;3.20;;
69542;SDS011;56762;49.494;11.768;2022-10-16T08:41:19;3.90;;;2.38;;
69542;SDS011;56762;49.494;11.768;2022-10-16T08:44:07;5.70;;;2.83;;
69542;SDS011;56762;49.494;11.768;2022-10-16T08:46:50;6.63;;;2.87;;
69542;SDS011;56762;49.494;11.768;2022-10-16T08:49:27;6.72;;;3.03;;
69542;SDS011;56762;49.494;11.768;2022-10-16T08:51:57;5.47;;;2.95;;
69542;SDS011;56762;49.494;11.768;2022-10-16T08:54:29;6.57;;;3.20;;
69542;SDS011;56762;49.494;11.768;2022-10-16T09:03:37;3.13;;;1.30;;
69542;SDS011;56762;49.494;11.768;2022-10-16T09:06:20;3.38;;;1.40;;
69542;SDS011;56762;49.494;11.768;2022-10-16T09:09:02;5.72;;;2.30;;
69542;SDS011;56762;49.494;11.768;2022-10-16T09:11:47;3.45;;;1.65;;
69542;SDS011;56762;49.494;11.768;2022-10-16T09:14:30;3.27;;;1.57;;
69542;SDS011;56762;49.494;11.768;2022-10-16T09:17:22;6.15;;;3.30;;
69542;SDS011;56762;49.494;11.768;2022-10-16T09:20:23;5.05;;;1.77;;
69542;SDS011;56762;49.494;11.768;2022-10-16T09:23:00;3.83;;;1.92;;
69542;SDS011;56762;49.494;11.768;2022-10-16T09:25:43;3.60;;;1.60;;
69542;SDS011;56762;49.494;11.768;2022-10-16T09:28:15;3.00;;;1.60;;
69542;SDS011;56762;49.494;11.768;2022-10-16T09:30:44;2.38;;;1.10;;
69542;SDS011;56762;49.494;11.768;2022-10-16T09:33:15;2.58;;;1.38;;
69542;SDS011;56762;49.494;11.768;2022-10-16T09:35:45;6.43;;;2.30;;
69542;SDS011;56762;49.494;11.768;2022-10-16T09:38:23;2.90;;;1.20;;
69542;SDS011;56762;49.494;11.768;2022-10-16T09:40:54;3.60;;;2.00;;
69542;SDS011;56762;49.494;11.768;2022-10-16T09:43:32;2.72;;;1.30;;
69542;SDS011;56762;49.494;11.768;2022-10-16T09:46:05;2.58;;;1.10;;
69542;SDS011;56762;49.494;11.768;2022-10-16T09:48:36;1.55;;;0.73;;
69542;SDS011;56762;49.494;11.768;2022-10-16T09:51:13;1.75;;;0.80;;
69542;SDS011;56762;49.494;11.768;2022-10-16T09:53:46;2.40;;;1.00;;
69542;SDS011;56762;49.494;11.768;2022-10-16T09:56:20;3.45;;;1.00;;
69542;SDS011;56762;49.494;11.768;2022-10-16T09:58:52;4.80;;;1.60;;
69542;SDS011;56762;49.494;11.768;2022-10-16T10:01:22;2.72;;;1.30;;
69542;SDS011;56762;49.494;11.768;2022-10-16T10:03:55;4.53;;;1.10;;
69542;SDS011;56762;49.494;11.768;2022-10-16T10:06:28;3.67;;;1.60;;
69542;SDS011;56762;49.494;11.768;2022-10-16T10:09:04;3.97;;;1.88;;
69542;SDS011;56762;49.494;11.768;2022-10-16T10:11:38;2.80;;;1.40;;
69542;SDS011;56762;49.494;11.768;2022-10-16T10:14:13;1.75;;;0.88;;
69542;SDS011;56762;49.494;11.768;2022-10-16T10:16:45;4.47;;;1.40;;
69542;SDS011;56762;49.494;11.768;2022-10-16T10:19:13;3.93;;;2.07;;
69542;SDS011;56762;49.494;11.768;2022-10-16T10:21:43;5.32;;;2.15;;
69542;SDS011;56762;49.494;11.768;2022-10-16T10:24:12;3.63;;;1.60;;
69542;SDS011;56762;49.494;11.768;2022-10-16T10:26:41;3.65;;;1.30;;
69542;SDS011;56762;49.494;11.768;2022-10-16T10:29:21;4.55;;;2.53;;
69542;SDS011;56762;49.494;11.768;2022-10-16T10:32:02;2.47;;;1.20;;
69542;SDS011;56762;49.494;11.768;2022-10-16T10:34:45;2.60;;;0.90;;
69542;SDS011;56762;49.494;11.768;2022-10-16T10:37:26;3.58;;;1.33;;
69542;SDS011;56762;49.494;11.768;2022-10-16T10:40:07;2.90;;;1.35;;
69542;SDS011;56762;49.494;11.768;2022-10-16T10:42:44;4.72;;;1.15;;
69542;SDS011;56762;49.494;11.768;2022-10-16T10:45:23;2.73;;;1.27;;
69542;SDS011;56762;49.494;11.768;2022-10-16T10:47:58;2.50;;;0.98;;
69542;SDS011;56762;49.494;11.768;2022-10-16T10:50:41;4.95;;;1.52;;
69542;SDS011;56762;49.494;11.768;2022-10-16T10:53:18;5.45;;;1.55;;
69542;SDS011;56762;49.494;11.768;2022-10-16T10:55:59;6.90;;;1.80;;
69542;SDS011;56762;49.494;11.768;2022-10-16T11:01:40;4.57;;;1.15;;
69542;SDS011;56762;49.494;11.768;2022-10-16T11:04:27;3.40;;;1.23;;
69542;SDS011;56762;49.494;11.768;2022-10-16T11:07:18;2.83;;;1.25;;
69542;SDS011;56762;49.494;11.768;2022-10-16T11:09:50;4.40;;;1.60;;
69542;SDS011;56762;49.494;11.768;2022-10-16T11:12:21;4.10;;;1.20;;
69542;SDS011;56762;49.494;11.768;2022-10-16T11:14:54;3.47;;;1.30;;
69542;SDS011;56762;49.494;11.768;2022-10-16T11:17:27;2.47;;;1.10;;
69542;SDS011;56762;49.494;11.768;2022-10-16T11:20:00;2.45;;;1.10;;
69542;SDS011;56762;49.494;11.768;2022-10-16T11:22:33;3.10;;;1.10;;
69542;SDS011;56762;49.494;11.768;2022-10-16T11:25:04;4.47;;;1.10;;
69542;SDS011;56762;49.494;11.768;2022-10-16T11:27:41;3.90;;;1.10;;
69542;SDS011;56762;49.494;11.768;2022-10-16T11:30:14;3.45;;;0.85;;
69542;SDS011;56762;49.494;11.768;2022-10-16T11:32:50;3.67;;;1.00;;
69542;SDS011;56762;49.494;11.768;2022-10-16T11:35:25;2.88;;;0.93;;
69542;SDS011;56762;49.494;11.768;2022-10-16T11:38:07;1.80;;;0.87;;
69542;SDS011;56762;49.494;11.768;2022-10-16T11:40:41;3.20;;;1.10;;
69542;SDS011;56762;49.494;11.768;2022-10-16T11:43:17;2.55;;;1.13;;
69542;SDS011;56762;49.494;11.768;2022-10-16T11:45:49;1.77;;;1.13;;
69542;SDS011;56762;49.494;11.768;2022-10-16T11:48:23;3.53;;;1.10;;
69542;SDS011;56762;49.494;11.768;2022-10-16T11:50:59;4.13;;;1.20;;
69542;SDS011;56762;49.494;11.768;2022-10-16T11:53:41;2.50;;;0.98;;
69542;SDS011;56762;49.494;11.768;2022-10-16T11:56:15;2.55;;;1.13;;
69542;SDS011;56762;49.494;11.768;2022-10-16T11:58:48;2.15;;;1.10;;
69542;SDS011;56762;49.494;11.768;2022-10-16T12:01:22;2.45;;;1.10;;
69542;SDS011;56762;49.494;11.768;2022-10-16T12:04:01;2.73;;;1.00;;
69542;SDS011;56762;49.494;11.768;2022-10-16T12:06:35;2.85;;;1.02;;
69542;SDS011;56762;49.494;11.768;2022-10-16T12:09:11;1.77;;;0.70;;
69542;SDS011;56762;49.494;11.768;2022-10-16T12:11:46;1.75;;;0.50;;
69542;SDS011;56762;49.494;11.768;2022-10-16T12:14:22;2.08;;;0.47;;
69542;SDS011;56762;49.494;11.768;2022-10-16T12:17:23;1.57;;;0.50;;
69542;SDS011;56762;49.494;11.768;2022-10-16T12:19:58;3.47;;;1.30;;
69542;SDS011;56762;49.494;11.768;2022-10-16T12:22:28;4.28;;;1.20;;
69542;SDS011;56762;49.494;11.768;2022-10-16T12:25:04;2.90;;;0.40;;
69542;SDS011;56762;49.494;11.768;2022-10-16T12:27:33;2.00;;;0.70;;
69542;SDS011;56762;49.494;11.768;2022-10-16T12:30:02;3.43;;;1.40;;
69542;SDS011;56762;49.494;11.768;2022-10-16T12:32:34;2.20;;;0.80;;
69542;SDS011;56762;49.494;11.768;2022-10-16T12:35:18;2.20;;;0.80;;
69542;SDS011;56762;49.494;11.768;2022-10-16T12:37:48;2.78;;;0.77;;
69542;SDS011;56762;49.494;11.768;2022-10-16T12:40:23;1.98;;;0.80;;
69542;SDS011;56762;49.494;11.768;2022-10-16T12:42:55;2.40;;;0.73;;
69542;SDS011;56762;49.494;11.768;2022-10-16T12:45:24;1.55;;;0.50;;
69542;SDS011;56762;49.494;11.768;2022-10-16T12:47:54;1.85;;;0.47;;
69542;SDS011;56762;49.494;11.768;2022-10-16T12:50:26;1.38;;;0.60;;
69542;SDS011;56762;49.494;11.768;2022-10-16T12:52:58;1.85;;;0.60;;
69542;SDS011;56762;49.494;11.768;2022-10-16T12:55:30;2.23;;;0.90;;
69542;SDS011;56762;49.494;11.768;2022-10-16T12:58:09;3.03;;;1.00;;
69542;SDS011;56762;49.494;11.768;2022-10-16T13:00:47;1.83;;;0.60;;
69542;SDS011;56762;49.494;11.768;2022-10-16T13:03:28;1.60;;;0.43;;
69542;SDS011;56762;49.494;11.768;2022-10-16T13:06:30;2.17;;;0.50;;
69542;SDS011;56762;49.494;11.768;2022-10-16T13:12:03;1.90;;;0.43;;
69542;SDS011;56762;49.494;11.768;2022-10-16T13:15:04;2.25;;;0.70;;
69542;SDS011;56762;49.494;11.768;2022-10-16T13:17:43;3.42;;;0.40;;
69542;SDS011;56762;49.494;11.768;2022-10-16T13:20:19;3.13;;;0.90;;
69542;SDS011;56762;49.494;11.768;2022-10-16T13:22:58;1.70;;;0.40;;
69542;SDS011;56762;49.494;11.768;2022-10-16T13:25:36;3.45;;;0.43;;
69542;SDS011;56762;49.494;11.768;2022-10-16T13:28:13;2.40;;;0.60;;
69542;SDS011;56762;49.494;11.768;2022-10-16T13:30:51;1.60;;;0.40;;
69542;SDS011;56762;49.494;11.768;2022-10-16T13:33:24;3.15;;;0.40;;
69542;SDS011;56762;49.494;11.768;2022-10-16T13:36:00;1.07;;;0.47;;
69542;SDS011;56762;49.494;11.768;2022-10-16T13:38:31;2.38;;;0.65;;
69542;SDS011;56762;49.494;11.768;2022-10-16T13:41:01;1.88;;;0.50;;
69542;SDS011;56762;49.494;11.768;2022-10-16T13:43:31;1.50;;;0.43;;
69542;SDS011;56762;49.494;11.768;2022-10-16T13:46:01;5.30;;;0.47;;
69542;SDS011;56762;49.494;11.768;2022-10-16T13:48:31;2.00;;;0.43;;
69542;SDS011;56762;49.494;11.768;2022-10-16T13:51:06;1.38;;;0.57;;
69542;SDS011;56762;49.494;11.768;2022-10-16T13:53:42;1.60;;;0.50;;
69542;SDS011;56762;49.494;11.768;2022-10-16T13:56:12;1.77;;;0.30;;
69542;SDS011;56762;49.494;11.768;2022-10-16T13:58:41;1.77;;;0.55;;
69542;SDS011;56762;49.494;11.768;2022-10-16T14:01:17;2.40;;;0.50;;
69542;SDS011;56762;49.494;11.768;2022-10-16T14:03:47;2.80;;;0.63;;
69542;SDS011;56762;49.494;11.768;2022-10-16T14:06:17;4.90;;;0.80;;
69542;SDS011;56762;49.494;11.768;2022-10-16T14:08:50;1.35;;;0.40;;
69542;SDS011;56762;49.494;11.768;2022-10-16T14:11:22;1.40;;;0.43;;
69542;SDS011;56762;49.494;11.768;2022-10-16T14:13:51;2.73;;;0.60;;
69542;SDS011;56762;49.494;11.768;2022-10-16T14:16:20;1.90;;;0.55;;
69542;SDS011;56762;49.494;11.768;2022-10-16T14:18:53;1.23;;;0.47;;
69542;SDS011;56762;49.494;11.768;2022-10-16T14:21:24;1.70;;;0.50;;
69542;SDS011;56762;49.494;11.768;2022-10-16T14:23:54;1.45;;;0.50;;
69542;SDS011;56762;49.494;11.768;2022-10-16T14:26:23;2.20;;;0.50;;
69542;SDS011;56762;49.494;11.768;2022-10-16T14:29:08;2.95;;;1.33;;
69542;SDS011;56762;49.494;11.768;2022-10-16T14:31:38;2.47;;;0.80;;
69542;SDS011;56762;49.494;11.768;2022-10-16T14:36:50;1.33;;;0.50;;
69542;SDS011;56762;49.494;11.768;2022-10-16T14:39:20;2.50;;;0.70;;
69542;SDS011;56762;49.494;11.768;2022-10-16T14:41:49;1.90;;;0.60;;
69542;SDS011;56762;49.494;11.768;2022-10-16T14:44:18;1.10;;;0.35;;
69542;SDS011;56762;49.494;11.768;2022-10-16T14:46:50;1.52;;;0.47;;
69542;SDS011;56762;49.494;11.768;2022-10-16T14:49:19;1.88;;;0.90;;
69542;SDS011;56762;49.494;11.768;2022-10-16T14:51:49;2.27;;;0.80;;
69542;SDS011;56762;49.494;11.768;2022-10-16T14:54:19;4.25;;;0.70;;
69542;SDS011;56762;49.494;11.768;2022-10-16T14:56:48;5.43;;;0.85;;
69542;SDS011;56762;49.494;11.768;2022-10-16T14:59:19;3.50;;;0.50;;
69542;SDS011;56762;49.494;11.768;2022-10-16T15:01:49;1.27;;;0.50;;
69542;SDS011;56762;49.494;11.768;2022-10-16T15:04:17;1.33;;;0.33;;
69542;SDS011;56762;49.494;11.768;2022-10-16T15:06:45;3.30;;;0.90;;
69542;SDS011;56762;49.494;11.768;2022-10-16T15:09:13;1.45;;;0.65;;
69542;SDS011;56762;49.494;11.768;2022-10-16T15:11:42;2.53;;;0.82;;
69542;SDS011;56762;49.494;11.768;2022-10-16T15:14:10;1.55;;;0.70;;
69542;SDS011;56762;49.494;11.768;2022-10-16T15:16:43;1.63;;;0.50;;
69542;SDS011;56762;49.494;11.768;2022-10-16T15:19:12;2.63;;;0.50;;